Ava, MO (65608)

10:59 AM CDT on May 24, 2015 (GMT -0500)
KMOAVA4 | | Change Station
CLOSE
Current Station
Personal Weather Station
Location: Ava, MO
Elevation: 1273 ft
Nearby Weather Stations

Elev 1273 ft 36.96 °N, 92.67 °W | Updated 5 seconds ago

Overcast
Overcast
71.6 °F
Feels Like 76 °F
N
4.5
Wind Variable Wind from ENE
Gusts 5.8 mph

Today
High -- | Low -- °F
--% Chance of Precip.
Yesterday
High -- | Low -- °F
Precip. -- in
5:56 AM 8:18 PM
Waxing Crescent, 40% visible
Pressure 29.96 in
Visibility 9.0 miles
Clouds Mostly Cloudy 2400 ft
Mostly Cloudy 3200 ft
Overcast 4800 ft
Heat Index 76 °F
Dew Point 57 °F
Humidity 59%
Rainfall 0.00 in
Snow Depth Not available.
UV 3 out of 12
Pollen 1.00 out of 12
Air Quality Not available.
Flu Activity Sporadic
METAR KBPK 241553Z AUTO 18007KT 9SM BKN024 BKN032 OVC048 23/20 A2999 RMK AO2 RAB40E52 SLP145 P0000 T02330200 $

More Conditions Fewer Conditions

Pressure 29.96 in
Visibility 9.0 miles
Clouds Mostly Cloudy 2400 ft
Mostly Cloudy 3200 ft
Overcast 4800 ft
Heat Index 76 °F
Dew Point 57 °F
Humidity 59%
Rainfall 0.00 in
Snow Depth Not available.
UV 3 out of 12
Pollen 1.00 out of 12
Air Quality Not available.
Flu Activity Sporadic
METAR KBPK 241553Z AUTO 18007KT 9SM BKN024 BKN032 OVC048 23/20 A2999 RMK AO2 RAB40E52 SLP145 P0000 T02330200 $

More Conditions Fewer Conditions

10-Day Weather Forecast

Almanac

Astronomy

May. 24, 2015 Rise Set
Actual Time
Civil Twilight
Nautical Twilight
Astronomical Twilight
Moon
Length of Visible Light
Length of Day
Tomorrow will be .
, % of the Moon is Illuminated

Today's Extremes

State Highs State Lows

Community

WunderPhotos

Upload Photos

1,823,779 photos uploaded!

WunderBlogs® & News

Nearby

Air Quality

  Air Quality AQ Index Pollutant
Not available.

Snow Depth

Station Depth Elevation

Earthquake Activity

City Distance Mag. Time & Date
Minimum magnitude displayed is 2.5.

Coastal Water Temperatures

Place Temperature

Stations

Nearby Weather Stations

Station Location Temp. Windchill Dew Point Humidity Wind Precip. Elev Updated Type